createdAt,value
2018-01-15T00:00:33.907Z,16.80
2018-01-15T00:02:59.914Z,16.70
2018-01-15T00:05:25.867Z,16.70
2018-01-15T00:07:52.563Z,16.20
2018-01-15T00:10:18.501Z,17.75
2018-01-15T00:12:44.418Z,17.17
2018-01-15T00:15:11.526Z,15.33
2018-01-15T00:17:37.455Z,17.35
2018-01-15T00:20:03.503Z,16.00
2018-01-15T00:22:33.374Z,15.50
2018-01-15T00:24:59.303Z,16.25
2018-01-15T00:27:26.029Z,17.13
2018-01-15T00:29:52.778Z,16.80
2018-01-15T00:32:19.290Z,18.30
2018-01-15T00:34:45.265Z,16.60
2018-01-15T00:37:11.201Z,16.23
2018-01-15T00:39:47.323Z,16.50
2018-01-15T00:42:14.266Z,15.85
2018-01-15T00:44:40.227Z,16.23
2018-01-15T00:47:06.123Z,16.57
2018-01-15T00:49:32.061Z,15.67
2018-01-15T00:51:57.971Z,16.27
2018-01-15T00:54:23.962Z,17.30
2018-01-15T00:56:49.995Z,17.35
2018-01-15T00:59:15.939Z,17.58
2018-01-15T01:01:41.929Z,16.93
2018-01-15T01:04:07.886Z,17.87
2018-01-15T01:06:34.160Z,15.73
2018-01-15T01:09:00.410Z,16.98
2018-01-15T01:11:26.373Z,17.02
2018-01-15T01:13:52.309Z,17.60
2018-01-15T01:16:19.040Z,16.37
2018-01-15T01:18:45.010Z,18.27
2018-01-15T01:21:10.995Z,17.10
2018-01-15T01:23:36.945Z,15.83
2018-01-15T01:26:02.896Z,17.20
2018-01-15T01:28:28.826Z,14.97
2018-01-15T01:30:54.758Z,16.30
2018-01-15T01:33:20.749Z,15.90
2018-01-15T01:35:46.710Z,15.77
2018-01-15T01:38:12.673Z,16.73
2018-01-15T01:40:38.594Z,16.53
2018-01-15T01:43:04.567Z,16.30
2018-01-15T01:45:30.494Z,16.17
2018-01-15T01:47:56.444Z,16.97
2018-01-15T01:50:22.398Z,16.10
2018-01-15T01:52:48.356Z,16.43
2018-01-15T01:55:14.350Z,16.57
2018-01-15T01:57:40.303Z,16.83
2018-01-15T02:00:07.046Z,16.10
2018-01-15T02:02:33.035Z,18.25
2018-01-15T02:04:59.063Z,18.13
2018-01-15T02:07:25.014Z,16.73
2018-01-15T02:09:51.992Z,16.47
2018-01-15T02:12:18.081Z,16.85
2018-01-15T02:14:44.733Z,16.33
2018-01-15T02:17:10.667Z,16.52
2018-01-15T02:19:36.662Z,15.47
2018-01-15T02:22:03.322Z,16.00
2018-01-15T02:24:29.248Z,15.77
2018-01-15T02:26:55.175Z,16.47
2018-01-15T02:29:21.158Z,16.43
2018-01-15T02:31:47.748Z,16.92
2018-01-15T02:34:13.706Z,17.45
2018-01-15T02:36:39.662Z,16.00
2018-01-15T02:39:05.663Z,17.73
2018-01-15T02:41:31.596Z,15.55
2018-01-15T02:43:57.521Z,16.33
2018-01-15T02:46:24.400Z,16.57
2018-01-15T02:48:50.338Z,17.52
2018-01-15T02:51:16.326Z,16.10
2018-01-15T02:53:42.274Z,16.97
2018-01-15T02:56:08.270Z,17.63
2018-01-15T02:58:34.373Z,16.90
2018-01-15T03:01:00.307Z,17.15
2018-01-15T03:03:26.279Z,17.27
2018-01-15T03:05:52.205Z,17.53
2018-01-15T03:08:18.159Z,16.63
2018-01-15T03:10:44.096Z,16.27
2018-01-15T03:13:10.019Z,19.10
2018-01-15T03:15:35.946Z,17.47
2018-01-15T03:18:01.895Z,16.60
2018-01-15T03:20:28.539Z,16.10
2018-01-15T03:22:54.586Z,19.40
2018-01-15T03:25:20.992Z,17.85
2018-01-15T03:27:46.970Z,16.92
2018-01-15T03:30:13.039Z,19.30
2018-01-15T03:32:38.963Z,18.17
2018-01-15T03:35:04.950Z,16.13
2018-01-15T03:37:30.919Z,18.10
2018-01-15T03:39:57.034Z,16.90
2018-01-15T03:42:22.925Z,17.42
2018-01-15T03:44:48.870Z,17.93
2018-01-15T03:47:14.793Z,17.17
2018-01-15T03:49:40.768Z,18.37
2018-01-15T03:52:06.732Z,17.70
2018-01-15T03:54:32.686Z,16.70
2018-01-15T03:56:58.668Z,16.50
2018-01-15T03:59:24.618Z,15.13
2018-01-15T04:01:52.191Z,17.90
2018-01-15T04:04:18.134Z,16.12
2018-01-15T04:06:44.087Z,17.07
2018-01-15T04:09:10.078Z,18.80
2018-01-15T04:11:35.997Z,15.80
2018-01-15T04:14:02.660Z,17.60
2018-01-15T04:16:28.630Z,18.87
2018-01-15T04:18:54.639Z,16.60
2018-01-15T04:21:20.559Z,17.65
2018-01-15T04:23:46.482Z,17.03
2018-01-15T04:26:12.466Z,16.23
2018-01-15T04:28:38.464Z,19.47
2018-01-15T04:31:04.513Z,17.87
2018-01-15T04:33:30.514Z,17.10
2018-01-15T04:35:56.469Z,17.52
2018-01-15T04:38:22.428Z,17.37
2018-01-15T04:40:48.447Z,17.23
2018-01-15T04:43:14.411Z,17.05
2018-01-15T04:45:40.390Z,17.60
2018-01-15T04:48:06.354Z,17.73
2018-01-15T04:50:32.331Z,15.97
2018-01-15T04:52:58.289Z,20.10
2018-01-15T04:55:24.253Z,17.30
2018-01-15T04:57:50.174Z,17.97
2018-01-15T05:00:16.126Z,16.67
2018-01-15T05:02:42.085Z,19.07
2018-01-15T05:05:07.995Z,16.07
2018-01-15T05:07:33.930Z,16.27
2018-01-15T05:09:59.899Z,18.60
2018-01-15T05:12:25.825Z,16.53
2018-01-15T05:14:51.796Z,18.90
2018-01-15T05:17:17.746Z,17.40
2018-01-15T05:19:44.503Z,16.63
2018-01-15T05:22:10.650Z,16.95
2018-01-15T05:24:36.613Z,18.27
2018-01-15T05:27:02.558Z,16.87
2018-01-15T05:29:28.718Z,17.13
2018-01-15T05:31:54.735Z,16.70
2018-01-15T05:34:21.683Z,19.40
2018-01-15T05:36:48.491Z,17.37
2018-01-15T05:39:14.433Z,18.75
2018-01-15T05:41:40.352Z,16.47
2018-01-15T05:44:06.276Z,16.67
2018-01-15T05:46:32.307Z,17.60
2018-01-15T05:48:59.254Z,19.08
2018-01-15T05:51:25.978Z,19.52
2018-01-15T05:53:51.957Z,18.37
2018-01-15T05:56:18.366Z,19.30
2018-01-15T05:58:44.351Z,19.23
2018-01-15T06:01:10.366Z,18.37
2018-01-15T06:03:36.322Z,17.62
2018-01-15T06:06:02.423Z,20.73
2018-01-15T06:08:28.393Z,18.87
2018-01-15T06:10:54.339Z,17.67
2018-01-15T06:13:20.276Z,18.20
2018-01-15T06:15:46.202Z,17.90
2018-01-15T06:18:12.152Z,17.00
2018-01-15T06:20:38.159Z,37.13
2018-01-15T06:23:04.078Z,23.95
2018-01-15T06:25:30.019Z,34.97
2018-01-15T06:27:56.216Z,19.43
2018-01-15T06:30:23.223Z,28.62
2018-01-15T06:32:49.361Z,26.75
2018-01-15T06:35:15.486Z,28.92
2018-01-15T06:37:42.434Z,18.85
2018-01-15T06:40:09.239Z,19.15
2018-01-15T06:42:35.332Z,18.27
2018-01-15T06:45:03.155Z,17.45
2018-01-15T06:47:29.269Z,18.50
2018-01-15T06:49:55.633Z,19.77
2018-01-15T06:52:21.750Z,19.52
2018-01-15T06:54:48.678Z,20.10
2018-01-15T06:57:14.677Z,19.45
2018-01-15T06:59:40.625Z,19.20
2018-01-15T07:02:07.339Z,18.60
2018-01-15T07:04:33.309Z,18.37
2018-01-15T07:06:59.387Z,20.00
2018-01-15T07:09:25.434Z,19.80
2018-01-15T07:11:52.151Z,19.55
2018-01-15T07:14:18.115Z,19.20
2018-01-15T07:16:44.199Z,18.57
2018-01-15T07:21:48.503Z,19.12
2018-01-15T07:24:16.383Z,28.55
2018-01-15T07:26:43.258Z,35.88
2018-01-15T07:29:09.231Z,48.55
2018-01-15T07:31:35.211Z,35.70
2018-01-15T07:34:01.246Z,34.20
2018-01-15T07:36:27.203Z,33.30
2018-01-15T07:38:53.302Z,33.33
2018-01-15T07:41:21.395Z,26.90
2018-01-15T07:43:48.294Z,23.85
2018-01-15T07:46:14.964Z,22.37
2018-01-15T07:48:40.936Z,20.42
2018-01-15T07:51:06.977Z,22.50
2018-01-15T07:53:33.722Z,21.08
2018-01-15T07:56:00.539Z,20.98
2018-01-15T07:58:26.560Z,21.95
2018-01-15T08:00:52.606Z,21.08
2018-01-15T08:03:18.557Z,20.20
2018-01-15T08:05:44.665Z,19.83
2018-01-15T08:08:11.732Z,20.55
2018-01-15T08:10:41.526Z,19.85
2018-01-15T08:13:07.553Z,22.87
2018-01-15T08:15:33.627Z,20.87
2018-01-15T08:18:01.215Z,17.70
2018-01-15T08:20:31.561Z,20.62
2018-01-15T08:23:00.215Z,19.83
2018-01-15T08:25:28.469Z,19.85
2018-01-15T08:27:54.503Z,19.52
2018-01-15T08:30:22.047Z,21.02
2018-01-15T08:32:48.018Z,17.30
2018-01-15T08:35:14.308Z,18.60
2018-01-15T08:37:40.910Z,18.70
2018-01-15T08:40:09.334Z,22.15
2018-01-15T08:42:36.416Z,18.17
2018-01-15T08:45:03.179Z,18.08
2018-01-15T08:47:31.405Z,17.65
2018-01-15T08:49:58.854Z,17.80
2018-01-15T08:52:25.805Z,19.48
2018-01-15T08:54:52.801Z,20.15
2018-01-15T09:02:25.605Z,19.80
2018-01-15T09:04:51.579Z,19.90
2018-01-15T09:07:18.370Z,20.77
2018-01-15T09:09:44.467Z,17.85
2018-01-15T09:12:12.229Z,19.98
2018-01-15T09:14:39.172Z,17.58
2018-01-15T09:17:05.196Z,17.30
2018-01-15T09:19:31.172Z,18.00
2018-01-15T09:21:58.052Z,20.07
2018-01-15T09:24:24.614Z,19.77
2018-01-15T09:26:50.627Z,19.55
2018-01-15T09:29:18.073Z,17.37
2018-01-15T09:31:44.012Z,18.55
2018-01-15T09:34:11.526Z,18.87
2018-01-15T09:36:38.379Z,20.70
2018-01-15T09:39:06.728Z,19.37
2018-01-15T09:41:32.805Z,19.95
2018-01-15T09:43:58.922Z,18.58
2018-01-15T09:46:31.505Z,19.23
2018-01-15T09:48:57.456Z,19.17
2018-01-15T09:51:24.368Z,17.33
2018-01-15T09:53:51.248Z,20.33
2018-01-15T09:56:17.587Z,20.37
2018-01-15T09:58:45.463Z,19.05
2018-01-15T10:01:12.479Z,21.40
2018-01-15T10:03:38.731Z,20.25
2018-01-15T10:06:04.846Z,20.67
2018-01-15T10:08:31.506Z,19.42
2018-01-15T10:10:58.596Z,20.52
2018-01-15T10:13:25.396Z,18.92
2018-01-15T10:15:51.732Z,20.08
2018-01-15T10:18:18.702Z,20.05
2018-01-15T10:20:44.837Z,20.00
2018-01-15T10:23:10.998Z,20.08
2018-01-15T10:25:37.260Z,18.60
2018-01-15T10:28:04.260Z,21.65
2018-01-15T10:30:30.530Z,18.52
2018-01-15T10:32:56.648Z,20.73
2018-01-15T10:35:22.773Z,19.73
2018-01-15T10:37:49.059Z,20.20
2018-01-15T10:40:15.057Z,20.88
2018-01-15T10:42:41.043Z,20.60
2018-01-15T10:45:07.777Z,21.30
2018-01-15T10:47:34.556Z,22.00
2018-01-15T10:50:00.571Z,20.15
2018-01-15T10:52:30.148Z,21.42
2018-01-15T10:54:57.083Z,20.70
2018-01-15T10:57:23.738Z,19.30
2018-01-15T10:59:50.025Z,20.73
2018-01-15T11:02:16.242Z,19.40
2018-01-15T11:04:42.195Z,18.58
2018-01-15T11:07:08.316Z,22.07
2018-01-15T11:09:34.320Z,21.45
2018-01-15T11:12:02.649Z,20.42
2018-01-15T11:14:28.724Z,19.92
2018-01-15T11:16:54.664Z,19.83
2018-01-15T11:19:20.658Z,20.23
2018-01-15T11:21:46.668Z,34.50
2018-01-15T11:24:12.617Z,22.70
2018-01-15T11:26:38.635Z,20.03
2018-01-15T11:29:05.603Z,20.42
2018-01-15T11:31:31.534Z,20.83
2018-01-15T11:33:57.533Z,21.50
2018-01-15T11:36:24.467Z,24.08
2018-01-15T11:38:50.799Z,19.73
2018-01-15T11:41:16.826Z,19.93
2018-01-15T11:43:44.322Z,21.03
2018-01-15T11:46:12.213Z,23.10
2018-01-15T11:48:38.322Z,21.73
2018-01-15T11:51:06.014Z,23.17
2018-01-15T11:53:32.057Z,22.45
2018-01-15T11:55:58.660Z,20.10
2018-01-15T11:58:25.187Z,21.13
2018-01-15T12:00:51.306Z,19.42
2018-01-15T12:03:22.567Z,21.00
2018-01-15T12:05:49.401Z,19.60
2018-01-15T12:08:15.335Z,22.27
2018-01-15T12:10:41.908Z,20.23
2018-01-15T12:13:07.934Z,20.35
2018-01-15T12:15:33.896Z,21.60
2018-01-15T12:18:00.784Z,21.80
2018-01-15T12:20:27.031Z,20.40
2018-01-15T12:22:53.054Z,21.23
2018-01-15T12:25:19.150Z,21.70
2018-01-15T12:27:45.102Z,20.67
2018-01-15T12:30:11.138Z,18.40
2018-01-15T12:32:37.081Z,18.87
2018-01-15T12:35:07.990Z,19.43
2018-01-15T12:37:34.011Z,18.57
2018-01-15T12:40:00.992Z,19.37
2018-01-15T12:42:27.119Z,19.37
2018-01-15T12:44:53.558Z,19.00
2018-01-15T12:47:20.397Z,19.20
2018-01-15T12:49:46.356Z,19.60
2018-01-15T12:52:12.922Z,20.50
2018-01-15T12:54:40.868Z,19.20
2018-01-15T12:57:07.142Z,17.80
2018-01-15T12:59:33.752Z,21.00
2018-01-15T13:02:01.539Z,21.07
2018-01-15T13:04:29.387Z,18.70
2018-01-15T13:06:58.517Z,20.23
2018-01-15T13:09:24.979Z,20.70
2018-01-15T13:11:52.736Z,21.37
2018-01-15T13:14:19.530Z,21.33
2018-01-15T13:16:47.962Z,21.30
2018-01-15T13:19:15.706Z,19.30
2018-01-15T13:21:43.512Z,21.10
2018-01-15T13:24:09.446Z,20.40
2018-01-15T13:26:36.957Z,19.80
2018-01-15T13:29:03.006Z,19.33
2018-01-15T13:31:29.495Z,20.23
2018-01-15T13:33:58.114Z,18.70
2018-01-15T13:36:25.566Z,19.53
2018-01-15T13:38:52.239Z,19.00
2018-01-15T13:41:20.258Z,19.10
2018-01-15T13:43:46.261Z,16.40
2018-01-15T13:46:12.230Z,19.17
2018-01-15T13:48:40.348Z,18.90
2018-01-15T13:51:07.146Z,16.80
2018-01-15T13:53:35.040Z,21.77
2018-01-15T13:56:02.972Z,18.50
2018-01-15T13:58:30.600Z,18.47
2018-01-15T14:00:57.133Z,18.30
2018-01-15T14:03:23.270Z,19.27
2018-01-15T14:05:50.127Z,21.93
2018-01-15T14:08:16.251Z,18.40
2018-01-15T14:10:43.677Z,17.53
2018-01-15T14:13:10.183Z,15.57
2018-01-15T14:15:36.364Z,14.60
2018-01-15T14:18:02.484Z,12.70
2018-01-15T14:20:29.339Z,13.33
2018-01-15T14:22:56.400Z,11.20
2018-01-15T14:25:24.473Z,12.60
2018-01-15T14:27:51.868Z,12.07
2018-01-15T14:30:19.876Z,12.13
2018-01-15T14:32:47.645Z,12.37
2018-01-15T14:35:13.875Z,10.30
2018-01-15T14:37:39.926Z,10.43
2018-01-15T14:40:06.721Z,11.80
2018-01-15T14:42:33.502Z,10.67
2018-01-15T14:44:59.831Z,10.03
2018-01-15T14:47:26.610Z,11.23
2018-01-15T14:49:53.314Z,11.10
2018-01-15T14:52:22.600Z,8.87
2018-01-15T14:54:48.635Z,9.40
2018-01-15T14:57:15.260Z,8.73
2018-01-15T14:59:42.142Z,9.10
2018-01-15T15:02:09.404Z,10.67
2018-01-15T15:04:36.524Z,9.30
2018-01-15T15:07:02.546Z,8.47
2018-01-15T15:09:28.998Z,9.37
2018-01-15T15:11:54.968Z,8.80
2018-01-15T15:14:21.101Z,8.73
2018-01-15T15:16:47.094Z,9.50
2018-01-15T15:19:13.059Z,7.87
2018-01-15T15:21:39.730Z,8.60
2018-01-15T15:24:06.356Z,7.60
2018-01-15T15:26:35.147Z,8.33
2018-01-15T15:29:01.988Z,7.80
2018-01-15T15:31:28.835Z,7.87
2018-01-15T15:33:55.332Z,8.70
2018-01-15T15:36:22.365Z,8.87
2018-01-15T15:38:48.310Z,8.30
2018-01-15T15:41:15.762Z,9.47
2018-01-15T15:43:41.782Z,11.83
2018-01-15T15:46:08.575Z,9.90
2018-01-15T15:48:35.287Z,10.13
2018-01-15T15:51:04.273Z,8.70
2018-01-15T15:53:32.209Z,10.53
2018-01-15T15:55:58.166Z,9.97
2018-01-15T15:58:24.703Z,10.47
2018-01-15T16:00:53.368Z,10.87
2018-01-15T16:03:23.437Z,12.03
2018-01-15T16:05:49.793Z,12.30
2018-01-15T16:08:15.859Z,12.30
2018-01-15T16:10:41.859Z,12.23
2018-01-15T16:13:07.822Z,14.07
2018-01-15T16:15:33.803Z,13.40
2018-01-15T16:20:34.738Z,14.93
2018-01-15T16:23:05.427Z,13.73
2018-01-15T16:25:31.574Z,14.17
2018-01-15T16:27:58.282Z,15.00
2018-01-15T16:30:27.089Z,14.53
2018-01-15T16:32:53.078Z,14.63
2018-01-15T16:35:23.206Z,14.10
2018-01-15T16:37:51.443Z,13.90
2018-01-15T16:40:19.976Z,13.57
2018-01-15T16:42:47.028Z,16.37
2018-01-15T16:45:13.984Z,14.57
2018-01-15T16:47:40.268Z,14.67
2018-01-15T16:50:13.186Z,14.03
2018-01-15T16:52:40.252Z,14.20
2018-01-15T16:55:06.674Z,15.40
2018-01-15T16:57:34.402Z,15.37
2018-01-15T17:00:01.469Z,14.80
2018-01-15T17:02:30.654Z,14.20
2018-01-15T17:04:59.774Z,13.53
2018-01-15T17:07:30.328Z,14.33
2018-01-15T17:09:56.852Z,13.27
2018-01-15T17:12:27.237Z,15.30
2018-01-15T17:14:56.149Z,14.70
2018-01-15T17:17:22.221Z,14.57
2018-01-15T17:19:48.860Z,13.60
2018-01-15T17:22:15.035Z,13.60
2018-01-15T17:24:41.512Z,13.53
2018-01-15T17:27:10.046Z,14.80
2018-01-15T17:29:35.988Z,13.73
2018-01-15T17:32:02.863Z,13.60
2018-01-15T17:34:29.598Z,12.40
2018-01-15T17:36:56.548Z,13.20
2018-01-15T17:39:24.116Z,13.90
2018-01-15T17:41:53.129Z,12.67
2018-01-15T17:44:21.648Z,13.10
2018-01-15T17:46:49.020Z,11.37
2018-01-15T17:49:16.485Z,12.50
2018-01-15T17:51:45.007Z,12.03
2018-01-15T17:54:11.809Z,13.10
2018-01-15T17:56:38.055Z,12.23
2018-01-15T17:59:09.434Z,12.60
2018-01-15T18:01:37.440Z,14.13
2018-01-15T18:04:04.584Z,13.03
2018-01-15T18:06:31.058Z,12.17
2018-01-15T18:08:59.157Z,12.57
2018-01-15T18:11:28.386Z,13.60
2018-01-15T18:13:55.139Z,12.07
2018-01-15T18:16:21.854Z,12.20
2018-01-15T18:18:48.558Z,13.33
2018-01-15T18:21:15.700Z,12.47
2018-01-15T18:23:41.732Z,12.70
2018-01-15T18:26:07.748Z,13.17
2018-01-15T18:28:34.021Z,11.43
2018-01-15T18:31:01.543Z,10.90
2018-01-15T18:33:28.394Z,11.63
2018-01-15T18:35:56.309Z,12.13
2018-01-15T18:38:28.416Z,12.00
2018-01-15T18:40:57.216Z,11.90
2018-01-15T18:43:26.422Z,11.20
2018-01-15T18:51:01.654Z,11.60
2018-01-15T18:53:30.043Z,11.00
2018-01-15T18:55:57.661Z,11.20
2018-01-15T18:58:30.191Z,11.57
2018-01-15T19:03:45.784Z,11.37
2018-01-15T19:06:15.748Z,10.83
2018-01-15T19:08:47.617Z,10.60
2018-01-15T19:11:13.556Z,10.00
2018-01-15T19:13:43.963Z,9.63
2018-01-15T19:16:12.650Z,11.43
2018-01-15T19:18:40.996Z,11.80
2018-01-15T19:21:08.572Z,9.17
2018-01-15T19:23:42.803Z,10.80
2018-01-15T19:26:11.776Z,10.57
2018-01-15T19:28:40.057Z,9.93
2018-01-15T19:31:13.752Z,10.60
2018-01-15T19:33:41.232Z,8.83
2018-01-15T19:36:13.221Z,9.43
2018-01-15T19:38:39.476Z,9.23
2018-01-15T19:41:06.494Z,9.10
2018-01-15T19:43:33.406Z,8.23
2018-01-15T19:46:07.585Z,9.20
2018-01-15T19:48:41.351Z,8.90
2018-01-15T19:51:23.665Z,9.10
2018-01-15T19:53:58.380Z,9.10
2018-01-15T19:56:30.493Z,9.20
2018-01-15T19:59:04.350Z,7.73
2018-01-15T20:01:39.938Z,8.73
2018-01-15T20:04:16.642Z,8.50
2018-01-15T20:06:48.861Z,8.57
2018-01-15T20:09:27.472Z,8.07
2018-01-15T20:11:53.450Z,7.50
2018-01-15T20:14:24.969Z,8.00
2018-01-15T20:16:54.223Z,7.73
2018-01-15T20:19:23.566Z,7.60
2018-01-15T20:21:52.312Z,7.60
2018-01-15T20:24:21.102Z,7.40
2018-01-15T20:26:48.084Z,6.73
2018-01-15T20:29:16.697Z,7.70
2018-01-15T20:31:44.670Z,8.37
2018-01-15T20:34:13.199Z,7.63
2018-01-15T20:36:43.102Z,8.23
2018-01-15T20:39:11.693Z,7.40
2018-01-15T20:41:39.347Z,7.20
2018-01-15T20:44:07.225Z,7.60
2018-01-15T20:46:36.943Z,7.30
2018-01-15T20:49:04.700Z,6.50
2018-01-15T20:51:31.798Z,6.90
2018-01-15T20:53:58.801Z,8.60
2018-01-15T20:56:26.091Z,6.60
2018-01-15T20:58:54.336Z,7.50
2018-01-15T21:01:20.442Z,7.20
2018-01-15T21:03:52.804Z,7.37
2018-01-15T21:06:20.471Z,7.17
2018-01-15T21:08:46.561Z,7.43
2018-01-15T21:11:14.324Z,7.73
2018-01-15T21:13:44.450Z,7.97
2018-01-15T21:16:12.462Z,6.63
2018-01-15T21:18:39.936Z,6.63
2018-01-15T21:21:05.903Z,6.03
2018-01-15T21:23:32.490Z,6.17
2018-01-15T21:25:58.534Z,5.07
2018-01-15T21:28:24.430Z,5.27
2018-01-15T21:30:50.544Z,5.30
2018-01-15T21:33:17.226Z,5.33
2018-01-15T21:35:44.808Z,5.30
2018-01-15T21:38:10.754Z,5.10
2018-01-15T21:40:36.685Z,5.63
2018-01-15T21:43:03.286Z,4.70
2018-01-15T21:45:29.215Z,4.73
2018-01-15T21:47:55.119Z,4.97
2018-01-15T21:50:22.174Z,5.50
2018-01-15T21:52:48.098Z,5.33
2018-01-15T21:55:14.084Z,5.37
2018-01-15T21:57:40.110Z,5.07
2018-01-15T22:00:08.636Z,5.23
2018-01-15T22:02:34.792Z,6.70
2018-01-15T22:05:00.769Z,6.03
2018-01-15T22:07:27.215Z,6.23
2018-01-15T22:09:54.769Z,6.53
2018-01-15T22:12:21.669Z,5.40
2018-01-15T22:14:48.774Z,5.97
2018-01-15T22:17:15.943Z,6.00
2018-01-15T22:19:41.910Z,5.50
2018-01-15T22:22:07.864Z,5.70
2018-01-15T22:24:33.851Z,5.47
2018-01-15T22:26:59.792Z,5.23
2018-01-15T22:29:25.729Z,6.33
2018-01-15T22:31:51.776Z,6.20
2018-01-15T22:34:17.742Z,6.43
2018-01-15T22:36:43.672Z,6.03
2018-01-15T22:39:09.617Z,5.80
2018-01-15T22:41:35.561Z,5.13
2018-01-15T22:44:02.167Z,5.00
2018-01-15T22:46:28.220Z,5.87
2018-01-15T22:48:54.250Z,5.23
2018-01-15T22:51:20.239Z,4.70
2018-01-15T22:53:46.997Z,4.53
2018-01-15T22:56:12.946Z,4.30
2018-01-15T22:58:38.882Z,4.60
2018-01-15T23:01:05.601Z,4.40
2018-01-15T23:03:31.557Z,3.97
2018-01-15T23:05:57.555Z,3.90
2018-01-15T23:08:25.077Z,3.90
2018-01-15T23:10:50.985Z,3.73
2018-01-15T23:13:16.905Z,3.17
2018-01-15T23:15:43.413Z,3.30
2018-01-15T23:18:09.640Z,3.13
2018-01-15T23:20:35.563Z,3.57
2018-01-15T23:23:01.561Z,3.27
2018-01-15T23:25:27.511Z,3.43
2018-01-15T23:27:53.409Z,4.27
2018-01-15T23:30:19.901Z,5.60
2018-01-15T23:32:45.878Z,2.77
2018-01-15T23:35:11.827Z,3.17
2018-01-15T23:37:37.741Z,3.30
2018-01-15T23:40:03.735Z,2.87
2018-01-15T23:42:29.694Z,3.33
2018-01-15T23:44:55.653Z,3.17
2018-01-15T23:47:21.579Z,2.80
2018-01-15T23:49:49.022Z,3.00
2018-01-15T23:52:14.991Z,2.67
2018-01-15T23:54:40.917Z,2.27
2018-01-15T23:57:06.845Z,2.70
2018-01-15T23:59:33.917Z,2.30
